createdAt,value
2018-02-27T00:00:03.281Z,100.00
2018-02-27T00:01:06.616Z,100.00
2018-02-27T00:02:10.189Z,100.00
2018-02-27T00:03:13.712Z,100.00
2018-02-27T00:04:17.188Z,100.00
2018-02-27T00:05:21.012Z,100.00
2018-02-27T00:06:24.560Z,100.00
2018-02-27T00:07:27.911Z,100.00
2018-02-27T00:08:31.430Z,100.00
2018-02-27T00:09:34.969Z,100.00
2018-02-27T00:10:38.394Z,100.00
2018-02-27T00:11:42.436Z,100.00
2018-02-27T00:12:45.857Z,100.00
2018-02-27T00:13:49.328Z,100.00
2018-02-27T00:14:52.807Z,100.00
2018-02-27T00:15:56.167Z,100.00
2018-02-27T00:16:59.688Z,100.00
2018-02-27T00:18:04.331Z,100.00
2018-02-27T00:19:07.863Z,100.00
2018-02-27T00:20:11.368Z,100.00
2018-02-27T00:21:14.832Z,100.00
2018-02-27T00:22:18.357Z,100.00
2018-02-27T00:23:21.923Z,100.00
2018-02-27T00:24:25.762Z,100.00
2018-02-27T00:25:29.035Z,100.00
2018-02-27T00:26:32.398Z,100.00
2018-02-27T00:27:35.871Z,100.00
2018-02-27T00:28:39.485Z,100.00
2018-02-27T00:29:42.925Z,100.00
2018-02-27T00:30:46.860Z,100.00
2018-02-27T00:31:50.444Z,100.00
2018-02-27T00:32:54.064Z,100.00
2018-02-27T00:33:57.363Z,100.00
2018-02-27T00:35:00.795Z,100.00
2018-02-27T00:36:04.239Z,100.00
2018-02-27T00:37:08.309Z,100.00
2018-02-27T00:38:11.757Z,100.00
2018-02-27T00:39:15.237Z,100.00
2018-02-27T00:40:18.735Z,100.00
2018-02-27T00:41:22.272Z,100.00
2018-02-27T00:42:25.769Z,100.00
2018-02-27T00:43:29.553Z,100.00
2018-02-27T00:44:33.036Z,100.00
2018-02-27T00:45:36.509Z,100.00
2018-02-27T00:46:40.135Z,100.00
2018-02-27T00:47:43.878Z,100.00
2018-02-27T00:48:47.387Z,100.00
2018-02-27T00:49:51.253Z,100.00
2018-02-27T00:50:55.066Z,100.00
2018-02-27T00:51:58.629Z,100.00
2018-02-27T00:53:02.256Z,100.00
2018-02-27T00:54:05.778Z,100.00
2018-02-27T00:55:09.275Z,100.00
2018-02-27T00:56:13.236Z,100.00
2018-02-27T00:57:16.874Z,100.00
2018-02-27T00:58:20.547Z,100.00
2018-02-27T00:59:24.954Z,100.00
2018-02-27T01:00:28.687Z,100.00
2018-02-27T01:01:32.325Z,100.00
2018-02-27T01:02:36.185Z,100.00
2018-02-27T01:03:39.864Z,100.00
2018-02-27T01:04:43.260Z,100.00
2018-02-27T01:05:46.597Z,100.00
2018-02-27T01:06:50.135Z,100.00
2018-02-27T01:07:53.409Z,100.00
2018-02-27T01:08:57.016Z,100.00
2018-02-27T01:10:00.556Z,100.00
2018-02-27T01:11:04.039Z,100.00
2018-02-27T01:12:07.536Z,100.00
2018-02-27T01:13:11.122Z,100.00
2018-02-27T01:14:15.386Z,100.00
2018-02-27T01:15:19.034Z,100.00
2018-02-27T01:16:22.487Z,100.00
2018-02-27T01:17:25.848Z,100.00
2018-02-27T01:18:29.420Z,100.00
2018-02-27T01:19:33.027Z,100.00
2018-02-27T01:20:36.996Z,100.00
2018-02-27T01:21:40.850Z,100.00
2018-02-27T01:22:44.369Z,100.00
2018-02-27T01:23:47.857Z,100.00
2018-02-27T01:24:51.616Z,100.00
2018-02-27T01:25:55.194Z,100.00
2018-02-27T01:26:59.315Z,100.00
2018-02-27T01:28:02.880Z,100.00
2018-02-27T01:29:06.494Z,100.00
2018-02-27T01:30:10.170Z,100.00
2018-02-27T01:31:13.459Z,100.00
2018-02-27T01:32:17.069Z,100.00
2018-02-27T01:33:20.953Z,100.00
2018-02-27T01:34:24.422Z,100.00
2018-02-27T01:35:28.206Z,100.00
2018-02-27T01:36:31.766Z,100.00
2018-02-27T01:37:35.492Z,100.00
2018-02-27T01:38:39.119Z,100.00
2018-02-27T01:39:43.162Z,100.00
2018-02-27T01:40:46.661Z,100.00
2018-02-27T01:41:50.099Z,100.00
2018-02-27T01:42:53.797Z,100.00
2018-02-27T01:43:57.497Z,100.00
2018-02-27T01:45:01.034Z,100.00
2018-02-27T01:46:05.183Z,100.00
2018-02-27T01:47:08.721Z,100.00
2018-02-27T01:48:12.459Z,100.00
2018-02-27T01:49:16.120Z,100.00
2018-02-27T01:50:19.822Z,100.00
2018-02-27T01:51:23.300Z,100.00
2018-02-27T01:52:27.209Z,100.00
2018-02-27T01:53:30.482Z,100.00
2018-02-27T01:54:34.223Z,100.00
2018-02-27T01:55:37.734Z,100.00
2018-02-27T01:56:41.000Z,100.00
2018-02-27T01:57:44.162Z,100.00
2018-02-27T01:58:48.232Z,100.00
2018-02-27T01:59:51.673Z,100.00
2018-02-27T02:00:55.339Z,100.00
2018-02-27T02:01:58.878Z,100.00
2018-02-27T02:03:02.845Z,100.00
2018-02-27T02:04:06.316Z,100.00
2018-02-27T02:05:10.329Z,100.00
2018-02-27T02:06:14.987Z,100.00
2018-02-27T02:07:18.572Z,100.00
2018-02-27T02:08:22.321Z,100.00
2018-02-27T02:09:26.020Z,100.00
2018-02-27T02:10:29.795Z,100.00
2018-02-27T02:11:33.813Z,100.00
2018-02-27T02:12:37.505Z,100.00
2018-02-27T02:13:41.197Z,100.00
2018-02-27T02:14:44.850Z,100.00
2018-02-27T02:15:48.172Z,100.00
2018-02-27T02:16:51.865Z,100.00
2018-02-27T02:17:55.788Z,100.00
2018-02-27T02:18:59.532Z,100.00
2018-02-27T02:20:03.144Z,100.00
2018-02-27T02:21:06.766Z,100.00
2018-02-27T02:22:10.535Z,100.00
2018-02-27T02:23:13.888Z,100.00
2018-02-27T02:24:17.707Z,100.00
2018-02-27T02:25:21.554Z,100.00
2018-02-27T02:26:24.861Z,100.00
2018-02-27T02:27:28.396Z,100.00
2018-02-27T02:28:31.751Z,100.00
2018-02-27T02:29:35.145Z,100.00
2018-02-27T02:30:38.782Z,100.00
2018-02-27T02:31:42.266Z,100.00
2018-02-27T02:32:45.481Z,100.00
2018-02-27T02:33:48.918Z,100.00
2018-02-27T02:34:52.438Z,100.00
2018-02-27T02:35:55.750Z,100.00
2018-02-27T02:36:59.436Z,100.00
2018-02-27T02:38:02.968Z,100.00
2018-02-27T02:39:06.317Z,100.00
2018-02-27T02:40:09.633Z,100.00
2018-02-27T02:41:12.975Z,100.00
2018-02-27T02:42:16.302Z,100.00
2018-02-27T02:43:20.078Z,100.00
2018-02-27T02:44:23.373Z,100.00
2018-02-27T02:45:26.576Z,100.00
2018-02-27T02:46:29.965Z,100.00
2018-02-27T02:47:33.517Z,100.00
2018-02-27T02:48:37.053Z,100.00
2018-02-27T02:49:40.893Z,100.00
2018-02-27T02:50:44.393Z,100.00
2018-02-27T02:51:47.807Z,100.00
2018-02-27T02:52:51.109Z,100.00
2018-02-27T02:53:54.526Z,100.00
2018-02-27T02:54:57.694Z,100.00
2018-02-27T02:56:01.308Z,100.00
2018-02-27T02:57:04.580Z,100.00
2018-02-27T02:58:07.912Z,100.00
2018-02-27T02:59:11.282Z,100.00
2018-02-27T03:00:14.630Z,100.00
2018-02-27T03:01:17.981Z,100.00
2018-02-27T03:02:21.844Z,100.00
2018-02-27T03:03:25.924Z,100.00
2018-02-27T03:04:29.169Z,100.00
2018-02-27T03:05:32.663Z,100.00
2018-02-27T03:06:35.959Z,100.00
2018-02-27T03:07:39.089Z,100.00
2018-02-27T03:08:42.765Z,100.00
2018-02-27T03:09:45.971Z,100.00
2018-02-27T03:10:49.232Z,100.00
2018-02-27T03:11:52.410Z,100.00
2018-02-27T03:12:55.855Z,100.00
2018-02-27T03:13:59.132Z,100.00
2018-02-27T03:15:02.516Z,100.00
2018-02-27T03:16:05.846Z,100.00
2018-02-27T03:17:09.033Z,100.00
2018-02-27T03:18:12.418Z,100.00
2018-02-27T03:19:15.725Z,100.00
2018-02-27T03:20:19.026Z,100.00
2018-02-27T03:21:22.638Z,100.00
2018-02-27T03:22:25.908Z,100.00
2018-02-27T03:23:29.178Z,100.00
2018-02-27T03:24:32.357Z,100.00
2018-02-27T03:25:35.601Z,100.00
2018-02-27T03:26:38.929Z,100.00
2018-02-27T03:27:42.546Z,100.00
2018-02-27T03:28:45.903Z,100.00
2018-02-27T03:29:49.080Z,100.00
2018-02-27T03:30:52.151Z,100.00
2018-02-27T03:31:55.632Z,100.00
2018-02-27T03:32:59.046Z,100.00
2018-02-27T03:34:02.837Z,100.00
2018-02-27T03:35:06.016Z,100.00
2018-02-27T03:36:09.291Z,100.00
2018-02-27T03:37:12.757Z,100.00
2018-02-27T03:38:16.311Z,100.00
2018-02-27T03:39:19.499Z,100.00
2018-02-27T03:40:23.133Z,100.00
2018-02-27T03:41:26.536Z,100.00
2018-02-27T03:42:29.671Z,100.00
2018-02-27T03:43:33.417Z,100.00
2018-02-27T03:44:36.856Z,100.00
2018-02-27T03:45:40.250Z,100.00
2018-02-27T03:46:43.837Z,100.00
2018-02-27T03:47:46.974Z,100.00
2018-02-27T03:48:50.237Z,100.00
2018-02-27T03:49:53.455Z,100.00
2018-02-27T03:50:56.633Z,100.00
2018-02-27T03:51:59.862Z,100.00
2018-02-27T03:53:03.375Z,100.00
2018-02-27T03:54:06.541Z,100.00
2018-02-27T03:55:09.943Z,100.00
2018-02-27T03:56:13.203Z,100.00
2018-02-27T03:57:16.631Z,100.00
2018-02-27T03:58:19.810Z,100.00
2018-02-27T03:59:23.599Z,100.00
2018-02-27T04:00:26.936Z,100.00
2018-02-27T04:01:30.221Z,100.00
2018-02-27T04:02:33.535Z,100.00
2018-02-27T04:03:36.732Z,100.00
2018-02-27T04:04:40.350Z,100.00
2018-02-27T04:05:44.046Z,100.00
2018-02-27T04:06:47.547Z,100.00
2018-02-27T04:07:50.835Z,100.00
2018-02-27T04:08:54.219Z,100.00
2018-02-27T04:09:57.425Z,100.00
2018-02-27T04:11:00.585Z,100.00
2018-02-27T04:12:04.113Z,100.00
2018-02-27T04:13:07.357Z,100.00
2018-02-27T04:14:10.660Z,100.00
2018-02-27T04:15:13.938Z,100.00
2018-02-27T04:16:17.198Z,100.00
2018-02-27T04:17:20.394Z,100.00
2018-02-27T04:18:24.113Z,100.00
2018-02-27T04:19:27.275Z,100.00
2018-02-27T04:20:30.406Z,100.00
2018-02-27T04:21:33.582Z,100.00
2018-02-27T04:22:36.774Z,100.00
2018-02-27T04:23:39.918Z,100.00
2018-02-27T04:24:43.633Z,100.00
2018-02-27T04:25:47.001Z,100.00
2018-02-27T04:26:50.139Z,100.00
2018-02-27T04:27:53.479Z,100.00
2018-02-27T04:28:56.718Z,100.00
2018-02-27T04:29:59.955Z,100.00
2018-02-27T04:31:03.472Z,100.00
2018-02-27T04:32:06.957Z,100.00
2018-02-27T04:33:10.210Z,100.00
2018-02-27T04:34:13.462Z,100.00
2018-02-27T04:35:16.575Z,100.00
2018-02-27T04:36:20.314Z,100.00
2018-02-27T04:37:23.696Z,100.00
2018-02-27T04:38:26.984Z,100.00
2018-02-27T04:39:30.209Z,100.00
2018-02-27T04:40:33.612Z,100.00
2018-02-27T04:41:37.303Z,100.00
2018-02-27T04:42:40.897Z,100.00
2018-02-27T04:43:44.441Z,100.00
2018-02-27T04:44:47.729Z,100.00
2018-02-27T04:45:51.080Z,100.00
2018-02-27T04:46:54.354Z,100.00
2018-02-27T04:47:57.497Z,100.00
2018-02-27T04:49:00.686Z,100.00
2018-02-27T04:50:04.163Z,100.00
2018-02-27T04:51:07.353Z,100.00
2018-02-27T04:52:10.417Z,100.00
2018-02-27T04:53:13.626Z,100.00
2018-02-27T04:54:17.007Z,100.00
2018-02-27T04:55:20.308Z,100.00
2018-02-27T04:56:23.866Z,100.00
2018-02-27T04:57:27.165Z,100.00
2018-02-27T04:58:30.805Z,100.00
2018-02-27T04:59:34.001Z,100.00
2018-02-27T05:00:37.048Z,100.00
2018-02-27T05:01:40.419Z,100.00
2018-02-27T05:02:43.962Z,100.00
2018-02-27T05:03:47.069Z,100.00
2018-02-27T05:04:50.402Z,100.00
2018-02-27T05:05:54.061Z,100.00
2018-02-27T05:06:57.438Z,100.00
2018-02-27T05:08:00.851Z,100.00
2018-02-27T05:09:05.300Z,100.00
2018-02-27T05:10:08.996Z,100.00
2018-02-27T05:11:12.274Z,100.00
2018-02-27T05:12:15.486Z,100.00
2018-02-27T05:13:19.324Z,100.00
2018-02-27T05:14:23.044Z,100.00
2018-02-27T05:15:26.846Z,100.00
2018-02-27T05:16:30.236Z,100.00
2018-02-27T05:17:33.607Z,100.00
2018-02-27T05:18:37.104Z,100.00
2018-02-27T05:19:40.465Z,100.00
2018-02-27T05:20:43.816Z,100.00
2018-02-27T05:21:47.704Z,100.00
2018-02-27T05:22:51.153Z,100.00
2018-02-27T05:23:54.546Z,100.00
2018-02-27T05:24:58.251Z,100.00
2018-02-27T05:26:01.753Z,100.00
2018-02-27T05:27:05.269Z,100.00
2018-02-27T05:28:09.093Z,100.00
2018-02-27T05:29:12.591Z,100.00
2018-02-27T05:30:16.306Z,100.00
2018-02-27T05:31:19.790Z,100.00
2018-02-27T05:32:23.483Z,100.00
2018-02-27T05:33:27.095Z,100.00
2018-02-27T05:34:30.944Z,100.00
2018-02-27T05:35:34.563Z,100.00
2018-02-27T05:36:38.268Z,100.00
2018-02-27T05:37:41.771Z,100.00
2018-02-27T05:38:45.430Z,100.00
2018-02-27T05:39:49.113Z,100.00
2018-02-27T05:40:52.844Z,100.00
2018-02-27T05:41:56.556Z,100.00
2018-02-27T05:43:00.112Z,100.00
2018-02-27T05:44:03.704Z,100.00
2018-02-27T05:45:07.299Z,100.00
2018-02-27T05:46:11.026Z,100.00
2018-02-27T05:47:15.334Z,100.00
2018-02-27T05:48:18.772Z,100.00
2018-02-27T05:49:22.640Z,100.00
2018-02-27T05:50:26.052Z,100.00
2018-02-27T05:51:30.337Z,100.00
2018-02-27T05:52:33.837Z,100.00
2018-02-27T05:53:38.019Z,100.00
2018-02-27T05:54:41.691Z,100.00
2018-02-27T05:55:45.240Z,100.00
2018-02-27T05:56:48.873Z,100.00
2018-02-27T05:57:52.495Z,100.00
2018-02-27T05:58:56.171Z,100.00
2018-02-27T06:00:00.061Z,100.00
2018-02-27T06:01:04.013Z,100.00
2018-02-27T06:02:07.667Z,100.00
2018-02-27T06:03:11.522Z,100.00
2018-02-27T06:04:16.008Z,100.00
2018-02-27T06:05:19.647Z,100.00
2018-02-27T06:06:23.893Z,100.00
2018-02-27T06:07:27.489Z,100.00
2018-02-27T06:08:31.343Z,100.00
2018-02-27T06:09:35.034Z,100.00
2018-02-27T06:10:38.809Z,100.00
2018-02-27T06:11:42.598Z,100.00
2018-02-27T06:12:46.887Z,100.00
2018-02-27T06:13:50.563Z,100.00
2018-02-27T06:14:54.196Z,100.00
2018-02-27T06:15:57.779Z,100.00
2018-02-27T06:17:01.987Z,100.00
2018-02-27T06:18:05.828Z,100.00
2018-02-27T06:19:09.769Z,100.00
2018-02-27T06:20:13.331Z,100.00
2018-02-27T06:21:17.085Z,100.00
2018-02-27T06:22:20.558Z,100.00
2018-02-27T06:23:24.206Z,100.00
2018-02-27T06:24:27.920Z,100.00
2018-02-27T06:25:32.668Z,100.00
2018-02-27T06:26:36.229Z,100.00
2018-02-27T06:27:39.815Z,100.00
2018-02-27T06:28:44.322Z,100.00
2018-02-27T06:29:48.045Z,100.00
2018-02-27T06:30:51.562Z,100.00
2018-02-27T06:31:56.133Z,100.00
2018-02-27T06:32:59.652Z,100.00
2018-02-27T06:34:03.173Z,100.00
2018-02-27T06:35:06.922Z,100.00
2018-02-27T06:36:10.525Z,100.00
2018-02-27T06:37:14.079Z,100.00
2018-02-27T06:38:18.179Z,100.00
2018-02-27T06:39:21.784Z,100.00
2018-02-27T06:40:25.336Z,100.00
2018-02-27T06:41:29.064Z,100.00
2018-02-27T06:42:32.900Z,100.00
2018-02-27T06:43:36.526Z,100.00
2018-02-27T06:44:40.545Z,100.00
2018-02-27T06:45:44.281Z,100.00
2018-02-27T06:46:47.792Z,100.00
2018-02-27T06:47:51.477Z,100.00
2018-02-27T06:48:55.026Z,100.00
2018-02-27T06:49:58.956Z,100.00
2018-02-27T06:51:03.121Z,100.00
2018-02-27T06:52:06.720Z,100.00
2018-02-27T06:53:10.501Z,100.00
2018-02-27T06:54:14.154Z,100.00
2018-02-27T06:55:17.899Z,100.00
2018-02-27T06:56:21.490Z,100.00
2018-02-27T06:57:25.453Z,100.00
2018-02-27T06:58:29.100Z,100.00
2018-02-27T06:59:32.934Z,100.00
2018-02-27T07:00:36.704Z,100.00
2018-02-27T07:01:40.303Z,100.00
2018-02-27T07:02:43.817Z,100.00
2018-02-27T07:03:47.781Z,100.00
2018-02-27T07:04:51.400Z,100.00
2018-02-27T07:05:54.950Z,100.00
2018-02-27T07:06:58.734Z,100.00
2018-02-27T07:08:02.424Z,100.00
2018-02-27T07:09:06.074Z,100.00
2018-02-27T07:10:11.332Z,100.00
2018-02-27T07:11:15.076Z,100.00
2018-02-27T07:12:18.806Z,100.00
2018-02-27T07:13:22.431Z,100.00
2018-02-27T07:14:26.127Z,100.00
2018-02-27T07:15:29.809Z,100.00
2018-02-27T07:16:33.887Z,100.00
2018-02-27T07:17:37.633Z,100.00
2018-02-27T07:18:41.380Z,100.00
2018-02-27T07:19:45.066Z,100.00
2018-02-27T07:20:48.542Z,100.00
2018-02-27T07:21:52.153Z,100.00
2018-02-27T07:22:56.365Z,100.00
2018-02-27T07:24:00.094Z,100.00
2018-02-27T07:25:03.827Z,100.00
2018-02-27T07:26:07.533Z,100.00
2018-02-27T07:27:11.100Z,100.00
2018-02-27T07:28:14.710Z,100.00
2018-02-27T07:29:18.625Z,100.00
2018-02-27T07:30:22.020Z,100.00
2018-02-27T07:31:25.747Z,100.00
2018-02-27T07:32:29.338Z,100.00
2018-02-27T07:33:33.150Z,100.00
2018-02-27T07:34:36.692Z,100.00
2018-02-27T07:35:40.463Z,100.00
2018-02-27T07:36:43.932Z,100.00
2018-02-27T07:37:47.608Z,100.00
2018-02-27T07:38:51.154Z,100.00
2018-02-27T07:39:54.760Z,100.00
2018-02-27T07:40:58.274Z,100.00
2018-02-27T07:42:02.432Z,100.00
2018-02-27T07:43:05.977Z,100.00
2018-02-27T07:44:09.451Z,100.00
2018-02-27T07:45:12.932Z,100.00
2018-02-27T07:46:16.435Z,100.00
2018-02-27T07:47:19.837Z,100.00
2018-02-27T07:48:23.714Z,100.00
2018-02-27T07:49:27.254Z,100.00
2018-02-27T07:50:30.751Z,100.00
2018-02-27T07:51:34.292Z,100.00
2018-02-27T07:52:37.953Z,100.00
2018-02-27T07:53:41.397Z,100.00
2018-02-27T07:54:45.250Z,97.29
2018-02-27T07:55:48.724Z,96.53
2018-02-27T07:56:52.225Z,95.88
2018-02-27T07:57:55.708Z,96.08
2018-02-27T07:58:59.251Z,95.43
2018-02-27T08:00:02.702Z,94.29
2018-02-27T08:01:06.637Z,91.03
2018-02-27T08:02:10.153Z,92.37
2018-02-27T08:03:13.617Z,93.17
2018-02-27T08:04:17.202Z,91.70
2018-02-27T08:05:20.920Z,90.84
2018-02-27T08:06:24.575Z,90.50
2018-02-27T08:07:27.918Z,88.61
2018-02-27T08:08:31.476Z,84.98
2018-02-27T08:09:34.875Z,85.42
2018-02-27T08:10:38.315Z,85.36
2018-02-27T08:11:41.699Z,83.16
2018-02-27T08:12:45.611Z,83.84
2018-02-27T08:13:49.122Z,77.47
2018-02-27T08:14:52.665Z,77.25
2018-02-27T08:15:56.188Z,78.17
2018-02-27T08:16:59.629Z,78.00
2018-02-27T08:18:03.115Z,76.49
2018-02-27T08:19:06.984Z,75.52
2018-02-27T08:20:10.622Z,74.84
2018-02-27T08:21:14.110Z,72.91
2018-02-27T08:22:17.577Z,72.12
2018-02-27T08:23:21.289Z,72.08
2018-02-27T08:24:24.832Z,70.94
2018-02-27T08:25:28.633Z,70.80
2018-02-27T08:26:32.059Z,69.72
2018-02-27T08:27:35.494Z,68.08
2018-02-27T08:28:38.990Z,67.94
2018-02-27T08:29:42.363Z,68.10
2018-02-27T08:30:45.911Z,66.79
2018-02-27T08:31:49.595Z,66.35
2018-02-27T08:32:53.374Z,65.81
2018-02-27T08:33:56.636Z,65.41
2018-02-27T08:35:00.004Z,64.83
2018-02-27T08:36:03.237Z,64.17
2018-02-27T08:37:06.641Z,62.46
2018-02-27T08:38:10.385Z,61.21
2018-02-27T08:39:13.853Z,60.35
2018-02-27T08:40:17.392Z,59.79
2018-02-27T08:41:20.802Z,58.95
2018-02-27T08:42:24.216Z,58.94
2018-02-27T08:43:27.609Z,58.43
2018-02-27T08:44:31.137Z,58.89
2018-02-27T08:45:34.600Z,58.66
2018-02-27T08:46:38.210Z,58.11
2018-02-27T08:47:41.711Z,55.93
2018-02-27T08:48:45.170Z,55.64
2018-02-27T08:49:49.321Z,54.79
2018-02-27T08:50:52.801Z,54.31
2018-02-27T08:51:56.298Z,54.24
2018-02-27T08:52:59.845Z,53.36
2018-02-27T08:54:03.323Z,53.17
2018-02-27T08:55:06.872Z,53.30
2018-02-27T08:56:10.786Z,53.41
2018-02-27T08:57:14.253Z,52.40
2018-02-27T08:58:17.794Z,52.95
2018-02-27T08:59:21.245Z,53.07
2018-02-27T09:00:24.698Z,51.90
2018-02-27T09:01:28.129Z,51.07
2018-02-27T09:02:32.038Z,50.47
2018-02-27T09:03:35.458Z,50.44
2018-02-27T09:04:39.015Z,50.10
2018-02-27T09:05:42.926Z,49.99
2018-02-27T09:06:46.523Z,49.64
2018-02-27T09:07:50.044Z,49.74
2018-02-27T09:08:53.704Z,49.21
2018-02-27T09:09:56.984Z,48.13
2018-02-27T09:11:00.242Z,48.19
2018-02-27T09:12:03.646Z,47.95
2018-02-27T09:13:07.034Z,48.39
2018-02-27T09:14:10.473Z,48.04
2018-02-27T09:15:14.239Z,47.19
2018-02-27T09:16:17.583Z,45.90
2018-02-27T09:17:21.050Z,46.34
2018-02-27T09:18:24.686Z,46.77
2018-02-27T09:19:28.028Z,46.31
2018-02-27T09:20:31.566Z,46.01
2018-02-27T09:21:35.392Z,45.50
2018-02-27T09:22:38.788Z,45.21
2018-02-27T09:23:42.113Z,45.64
2018-02-27T09:24:45.548Z,45.68
2018-02-27T09:25:49.082Z,45.33
2018-02-27T09:26:52.587Z,44.70
2018-02-27T09:27:56.315Z,44.51
2018-02-27T09:28:59.752Z,43.92
2018-02-27T09:30:04.353Z,43.60
2018-02-27T09:31:08.149Z,43.82
2018-02-27T09:32:11.531Z,43.27
2018-02-27T09:33:15.069Z,41.84
2018-02-27T09:34:18.897Z,42.04
2018-02-27T09:35:22.450Z,41.41
2018-02-27T09:36:25.836Z,41.48
2018-02-27T09:37:29.284Z,41.40
2018-02-27T09:38:32.767Z,40.67
2018-02-27T09:39:36.173Z,41.28
2018-02-27T09:40:39.975Z,40.57
2018-02-27T09:41:43.993Z,40.84
2018-02-27T09:42:47.494Z,40.27
2018-02-27T09:43:50.869Z,40.24
2018-02-27T09:44:54.237Z,40.18
2018-02-27T09:45:57.647Z,40.33
2018-02-27T09:47:01.502Z,40.14
2018-02-27T09:48:05.049Z,40.21
2018-02-27T09:49:08.540Z,39.84
2018-02-27T09:50:12.007Z,38.52
2018-02-27T09:51:15.416Z,38.53
2018-02-27T09:52:19.073Z,39.65
2018-02-27T09:53:22.848Z,38.93
2018-02-27T09:54:26.374Z,37.72
2018-02-27T09:55:29.853Z,38.14
2018-02-27T09:56:33.325Z,37.86
2018-02-27T09:57:36.763Z,38.21
2018-02-27T09:58:40.273Z,39.09
2018-02-27T09:59:44.324Z,39.22
2018-02-27T10:00:48.050Z,38.62
2018-02-27T10:01:51.564Z,38.57
2018-02-27T10:02:54.888Z,38.69
2018-02-27T10:03:58.218Z,38.45
2018-02-27T10:05:01.683Z,38.41
2018-02-27T10:06:05.490Z,37.85
2018-02-27T10:07:08.915Z,37.96
2018-02-27T10:08:12.318Z,37.70
2018-02-27T10:09:15.701Z,38.50
2018-02-27T10:10:19.173Z,38.05
2018-02-27T10:11:22.550Z,37.71
2018-02-27T10:12:26.375Z,37.72
2018-02-27T10:13:30.084Z,37.27
2018-02-27T10:14:33.644Z,36.78
2018-02-27T10:15:36.969Z,36.97
2018-02-27T10:16:40.301Z,36.78
2018-02-27T10:17:43.764Z,36.94
2018-02-27T10:18:47.508Z,36.27
2018-02-27T10:19:50.867Z,37.05
2018-02-27T10:20:54.184Z,36.93
2018-02-27T10:21:57.562Z,36.81
2018-02-27T10:23:00.981Z,36.99
2018-02-27T10:24:04.399Z,36.95
2018-02-27T10:25:07.785Z,36.30
2018-02-27T10:26:11.246Z,36.42
2018-02-27T10:27:14.513Z,36.37
2018-02-27T10:28:17.788Z,36.19
2018-02-27T10:29:21.153Z,36.02
2018-02-27T10:30:24.908Z,35.91
2018-02-27T10:31:28.396Z,35.65
2018-02-27T10:32:31.920Z,35.29
2018-02-27T10:33:38.973Z,34.98
2018-02-27T10:34:42.721Z,34.96
2018-02-27T10:35:46.218Z,35.04
2018-02-27T10:36:50.196Z,34.36
2018-02-27T10:37:53.551Z,34.58
2018-02-27T10:38:56.871Z,33.87
2018-02-27T10:40:00.336Z,34.15
2018-02-27T10:41:03.824Z,34.95
2018-02-27T10:42:07.161Z,34.48
2018-02-27T10:43:10.895Z,33.27
2018-02-27T10:44:14.356Z,33.93
2018-02-27T10:45:17.684Z,34.13
2018-02-27T10:46:21.146Z,34.29
2018-02-27T10:47:24.575Z,34.00
2018-02-27T10:48:28.019Z,34.11
2018-02-27T10:49:31.983Z,33.83
2018-02-27T10:50:35.869Z,33.30
2018-02-27T10:51:39.734Z,33.08
2018-02-27T10:52:43.029Z,33.07
2018-02-27T10:53:46.280Z,33.15
2018-02-27T10:54:49.587Z,32.88
2018-02-27T10:55:53.397Z,32.56
2018-02-27T10:56:56.674Z,33.31
2018-02-27T10:58:00.062Z,33.22
2018-02-27T10:59:03.560Z,32.92
2018-02-27T11:00:07.110Z,32.83
2018-02-27T11:01:14.406Z,32.40
2018-02-27T11:02:17.829Z,34.41
2018-02-27T11:03:21.147Z,34.75
2018-02-27T11:04:24.572Z,34.72
2018-02-27T11:05:27.997Z,34.88
2018-02-27T11:06:31.338Z,34.59
2018-02-27T11:07:34.894Z,33.80
2018-02-27T11:08:38.419Z,33.20
2018-02-27T11:09:41.752Z,33.42
2018-02-27T11:10:45.325Z,32.25
2018-02-27T11:11:48.860Z,31.63
2018-02-27T11:12:52.197Z,31.22
2018-02-27T11:13:56.070Z,31.05
2018-02-27T11:14:59.343Z,31.35
2018-02-27T11:16:02.851Z,31.44
2018-02-27T11:17:07.392Z,31.53
2018-02-27T11:18:10.733Z,31.47
2018-02-27T11:19:14.102Z,31.11
2018-02-27T11:20:17.659Z,31.26
2018-02-27T11:21:20.855Z,30.98
2018-02-27T11:22:24.217Z,30.35
2018-02-27T11:23:27.624Z,30.58
2018-02-27T11:24:30.921Z,30.24
2018-02-27T11:25:34.295Z,30.33
2018-02-27T11:26:37.950Z,30.26
2018-02-27T11:27:41.378Z,30.54
2018-02-27T11:28:44.616Z,30.53
2018-02-27T11:29:47.790Z,29.82
2018-02-27T11:30:50.921Z,30.34
2018-02-27T11:31:54.203Z,30.34
2018-02-27T11:32:59.896Z,30.17
2018-02-27T11:34:03.563Z,29.77
2018-02-27T11:35:06.869Z,29.78
2018-02-27T11:36:10.061Z,29.62
2018-02-27T11:37:13.356Z,29.72
2018-02-27T11:38:16.650Z,29.38
2018-02-27T11:39:20.029Z,29.41
2018-02-27T11:40:23.368Z,29.55
2018-02-27T11:41:26.611Z,29.66
2018-02-27T11:42:29.850Z,29.49
2018-02-27T11:43:33.194Z,29.82
2018-02-27T11:44:36.855Z,29.77
2018-02-27T11:45:40.061Z,29.73
2018-02-27T11:46:43.325Z,29.57
2018-02-27T11:47:46.625Z,29.71
2018-02-27T11:48:49.953Z,29.26
2018-02-27T11:49:53.358Z,29.66
2018-02-27T11:50:57.203Z,29.56
2018-02-27T11:52:00.593Z,29.26
2018-02-27T11:53:03.878Z,29.49
2018-02-27T11:54:07.363Z,29.48
2018-02-27T11:55:10.646Z,29.50
2018-02-27T11:56:13.950Z,29.15
2018-02-27T11:57:17.373Z,29.23
2018-02-27T11:58:20.691Z,29.70
2018-02-27T11:59:23.956Z,30.00
2018-02-27T12:00:27.245Z,29.91
2018-02-27T12:01:30.459Z,29.78
2018-02-27T12:02:33.726Z,29.46
2018-02-27T12:03:37.097Z,29.03
2018-02-27T12:04:40.428Z,29.22
2018-02-27T12:05:43.687Z,29.33
2018-02-27T12:06:46.970Z,30.16
2018-02-27T12:07:50.229Z,29.77
2018-02-27T12:08:53.496Z,29.24
2018-02-27T12:09:57.128Z,28.94
2018-02-27T12:11:00.396Z,28.47
2018-02-27T12:12:03.795Z,28.41
2018-02-27T12:13:07.195Z,28.54
2018-02-27T12:14:10.578Z,29.00
2018-02-27T12:15:13.936Z,28.77
2018-02-27T12:16:17.729Z,28.32
2018-02-27T12:17:21.018Z,28.80
2018-02-27T12:18:24.336Z,28.63
2018-02-27T12:19:27.613Z,28.59
2018-02-27T12:20:30.870Z,28.49
2018-02-27T12:21:34.204Z,28.68
2018-02-27T12:22:38.013Z,28.50
2018-02-27T12:23:41.230Z,28.18
2018-02-27T12:24:44.486Z,28.32
2018-02-27T12:25:47.749Z,28.32
2018-02-27T12:26:51.039Z,28.02
2018-02-27T12:27:54.369Z,28.10
2018-02-27T12:28:57.997Z,28.37
2018-02-27T12:30:01.418Z,28.46
2018-02-27T12:31:04.796Z,28.16
2018-02-27T12:32:08.096Z,28.17
2018-02-27T12:33:11.511Z,28.55
2018-02-27T12:34:14.836Z,28.47
2018-02-27T12:35:18.400Z,28.02
2018-02-27T12:36:23.637Z,27.62
2018-02-27T12:37:27.864Z,27.93
2018-02-27T12:38:31.223Z,28.39
2018-02-27T12:39:34.476Z,28.56
2018-02-27T12:40:37.739Z,27.83
2018-02-27T12:41:41.085Z,28.48
2018-02-27T12:42:44.510Z,28.46
2018-02-27T12:43:48.223Z,28.20
2018-02-27T12:44:51.604Z,28.40
2018-02-27T12:45:54.810Z,28.11
2018-02-27T12:46:58.419Z,27.95
2018-02-27T12:48:01.766Z,28.13
2018-02-27T12:49:04.995Z,28.24
2018-02-27T12:50:08.280Z,28.14
2018-02-27T12:51:11.518Z,28.00
2018-02-27T12:52:14.807Z,28.13
2018-02-27T12:53:18.576Z,27.75
2018-02-27T12:54:22.004Z,27.73
2018-02-27T12:55:25.310Z,27.46
2018-02-27T12:56:28.564Z,27.56
2018-02-27T12:57:31.911Z,27.69
2018-02-27T12:58:35.348Z,27.79
2018-02-27T12:59:39.013Z,27.83
2018-02-27T13:00:42.462Z,27.83
2018-02-27T13:01:45.843Z,27.81
2018-02-27T13:02:49.126Z,27.67
2018-02-27T13:03:52.448Z,27.57
2018-02-27T13:04:56.369Z,27.07
2018-02-27T13:06:00.074Z,27.66
2018-02-27T13:07:03.328Z,27.76
2018-02-27T13:08:06.681Z,27.60
2018-02-27T13:09:10.010Z,27.62
2018-02-27T13:10:13.237Z,27.43
2018-02-27T13:11:16.584Z,27.48
2018-02-27T13:12:20.188Z,27.18
2018-02-27T13:13:24.476Z,27.18
2018-02-27T13:14:27.777Z,27.62
2018-02-27T13:15:31.052Z,27.47
2018-02-27T13:16:35.099Z,27.70
2018-02-27T13:17:38.496Z,27.84
2018-02-27T13:18:42.320Z,27.97
2018-02-27T13:19:45.595Z,27.73
2018-02-27T13:20:49.134Z,27.53
2018-02-27T13:21:52.333Z,27.19
2018-02-27T13:22:55.479Z,27.09